Terminal Aerodrome Forecast
Issued by NWS Albany, NY

Home | Current Version | Previous Version | Text Only | Print | Product List | Glossary On
Versions: 1 2 3 4 5 6 7 8 9 10 11 12 13 14 15
000
FTUS41 KALY 300500 CCA
TAFALB
TAF COR
KALB 300551Z 3006/0106 VRB02KT 6SM BR SCT001 SCT020 BKN200
      TEMPO 3006/3009 1/2SM FG BKN001 BKN020
     FM300900 VRB03KT 3SM BR SCT001 BKN015 BKN020
      TEMPO 3009/3012 1/2SM FG BKN001
     FM301200 12004KT P6SM BKN015 BKN020
     FM301600 13005KT P6SM BKN035
     FM010000 VRB03KT 6SM BR BKN025=

USA.gov is the U.S. government's official web portal to all federal, state and local government web resources and services.